Aviation Digital Data Service (ADDS)

Output produced by METARs form (1124 UTC 06 February 2016)
found at http://aviationweather.gov/adds/metars/
 
KLWB 060520Z 0606/0706 00000KT P6SM BKN250 
     FM061500 24004KT P6SM BKN200 
     FM062300 00000KT P6SM BKN150